sensor_id;sensor_type;location;lat;lon;timestamp;temperature;humidity
65864;SHT30;52639;51.180;20.460;2023-10-13T00:01:11;13.53;92.97
65864;SHT30;52639;51.180;20.460;2023-10-13T00:05:16;13.58;93.01
65864;SHT30;52639;51.180;20.460;2023-10-13T00:09:19;13.54;93.08
65864;SHT30;52639;51.180;20.460;2023-10-13T00:13:46;13.53;93.13
65864;SHT30;52639;51.180;20.460;2023-10-13T00:17:53;13.53;93.15
65864;SHT30;52639;51.180;20.460;2023-10-13T00:21:58;13.54;93.22
65864;SHT30;52639;51.180;20.460;2023-10-13T00:26:10;13.54;93.19
65864;SHT30;52639;51.180;20.460;2023-10-13T00:30:14;13.51;93.21
65864;SHT30;52639;51.180;20.460;2023-10-13T00:34:23;13.51;93.33
65864;SHT30;52639;51.180;20.460;2023-10-13T00:38:34;13.53;93.34
65864;SHT30;52639;51.180;20.460;2023-10-13T00:42:38;13.50;93.38
65864;SHT30;52639;51.180;20.460;2023-10-13T00:46:53;13.54;93.41
65864;SHT30;52639;51.180;20.460;2023-10-13T00:50:59;13.54;93.39
65864;SHT30;52639;51.180;20.460;2023-10-13T00:55:06;13.50;93.43
65864;SHT30;52639;51.180;20.460;2023-10-13T00:59:10;13.53;93.48
65864;SHT30;52639;51.180;20.460;2023-10-13T01:03:15;13.51;93.54
65864;SHT30;52639;51.180;20.460;2023-10-13T01:07:26;13.53;93.52
65864;SHT30;52639;51.180;20.460;2023-10-13T01:11:30;13.51;93.56
65864;SHT30;52639;51.180;20.460;2023-10-13T01:15:36;13.51;93.57
65864;SHT30;52639;51.180;20.460;2023-10-13T01:19:41;13.53;93.54
65864;SHT30;52639;51.180;20.460;2023-10-13T01:23:48;13.53;93.51
65864;SHT30;52639;51.180;20.460;2023-10-13T01:27:52;13.54;93.56
65864;SHT30;52639;51.180;20.460;2023-10-13T01:31:55;13.54;93.54
65864;SHT30;52639;51.180;20.460;2023-10-13T01:35:58;13.57;93.52
65864;SHT30;52639;51.180;20.460;2023-10-13T01:40:10;13.51;93.53
65864;SHT30;52639;51.180;20.460;2023-10-13T01:44:15;13.40;93.52
65864;SHT30;52639;51.180;20.460;2023-10-13T01:48:18;13.33;93.82
65864;SHT30;52639;51.180;20.460;2023-10-13T01:52:22;13.26;93.78
65864;SHT30;52639;51.180;20.460;2023-10-13T01:56:33;13.22;93.84
65864;SHT30;52639;51.180;20.460;2023-10-13T02:00:45;13.22;93.81
65864;SHT30;52639;51.180;20.460;2023-10-13T02:04:49;13.19;93.83
65864;SHT30;52639;51.180;20.460;2023-10-13T02:08:57;13.26;93.74
65864;SHT30;52639;51.180;20.460;2023-10-13T02:13:15;13.27;93.65
65864;SHT30;52639;51.180;20.460;2023-10-13T02:17:19;13.33;93.57
65864;SHT30;52639;51.180;20.460;2023-10-13T02:21:24;13.32;93.56
65864;SHT30;52639;51.180;20.460;2023-10-13T02:25:35;13.32;93.58
65864;SHT30;52639;51.180;20.460;2023-10-13T02:29:49;13.33;93.68
65864;SHT30;52639;51.180;20.460;2023-10-13T02:33:59;13.34;93.68
65864;SHT30;52639;51.180;20.460;2023-10-13T02:38:07;13.37;93.78
65864;SHT30;52639;51.180;20.460;2023-10-13T02:42:13;13.39;93.71
65864;SHT30;52639;51.180;20.460;2023-10-13T02:46:26;13.43;93.78
65864;SHT30;52639;51.180;20.460;2023-10-13T02:50:30;13.43;93.82
65864;SHT30;52639;51.180;20.460;2023-10-13T02:54:34;13.46;93.84
65864;SHT30;52639;51.180;20.460;2023-10-13T02:58:41;13.39;93.82
65864;SHT30;52639;51.180;20.460;2023-10-13T03:02:48;13.42;93.90
65864;SHT30;52639;51.180;20.460;2023-10-13T03:06:59;13.42;93.89
65864;SHT30;52639;51.180;20.460;2023-10-13T03:11:05;13.40;93.85
65864;SHT30;52639;51.180;20.460;2023-10-13T03:15:11;13.36;93.95
65864;SHT30;52639;51.180;20.460;2023-10-13T03:19:17;13.43;93.96
65864;SHT30;52639;51.180;20.460;2023-10-13T03:23:30;13.40;93.97
65864;SHT30;52639;51.180;20.460;2023-10-13T03:27:49;13.44;93.92
65864;SHT30;52639;51.180;20.460;2023-10-13T03:32:06;13.44;93.95
65864;SHT30;52639;51.180;20.460;2023-10-13T03:36:17;13.44;94.01
65864;SHT30;52639;51.180;20.460;2023-10-13T03:40:44;13.44;94.00
65864;SHT30;52639;51.180;20.460;2023-10-13T03:45:08;13.42;94.02
65864;SHT30;52639;51.180;20.460;2023-10-13T03:49:12;13.42;94.03
65864;SHT30;52639;51.180;20.460;2023-10-13T03:53:20;13.34;94.08
65864;SHT30;52639;51.180;20.460;2023-10-13T03:57:26;13.33;94.25
65864;SHT30;52639;51.180;20.460;2023-10-13T04:01:29;13.30;94.20
65864;SHT30;52639;51.180;20.460;2023-10-13T04:05:36;13.23;94.28
65864;SHT30;52639;51.180;20.460;2023-10-13T04:09:47;13.20;94.39
65864;SHT30;52639;51.180;20.460;2023-10-13T04:14:15;13.14;94.42
65864;SHT30;52639;51.180;20.460;2023-10-13T04:18:46;13.10;94.51
65864;SHT30;52639;51.180;20.460;2023-10-13T04:23:09;13.04;94.45
65864;SHT30;52639;51.180;20.460;2023-10-13T04:27:28;13.06;94.64
65864;SHT30;52639;51.180;20.460;2023-10-13T04:31:56;13.10;94.47
65864;SHT30;52639;51.180;20.460;2023-10-13T04:36:03;13.04;94.43
65864;SHT30;52639;51.180;20.460;2023-10-13T04:40:15;13.00;94.45
65864;SHT30;52639;51.180;20.460;2023-10-13T04:44:21;13.03;94.43
65864;SHT30;52639;51.180;20.460;2023-10-13T04:48:44;13.02;94.48
65864;SHT30;52639;51.180;20.460;2023-10-13T04:52:48;13.06;94.39
65864;SHT30;52639;51.180;20.460;2023-10-13T04:57:03;13.04;94.36
65864;SHT30;52639;51.180;20.460;2023-10-13T05:01:23;13.02;94.37
65864;SHT30;52639;51.180;20.460;2023-10-13T05:05:43;13.03;94.34
65864;SHT30;52639;51.180;20.460;2023-10-13T05:10:10;13.06;94.36
65864;SHT30;52639;51.180;20.460;2023-10-13T05:14:30;13.10;94.37
65864;SHT30;52639;51.180;20.460;2023-10-13T05:18:55;13.09;94.34
65864;SHT30;52639;51.180;20.460;2023-10-13T05:23:15;13.13;94.34
65864;SHT30;52639;51.180;20.460;2023-10-13T05:27:35;13.16;94.30
65864;SHT30;52639;51.180;20.460;2023-10-13T05:31:55;13.19;94.27
65864;SHT30;52639;51.180;20.460;2023-10-13T05:36:16;13.26;94.12
65864;SHT30;52639;51.180;20.460;2023-10-13T05:40:37;13.37;94.01
65864;SHT30;52639;51.180;20.460;2023-10-13T05:44:56;13.57;93.71
65864;SHT30;52639;51.180;20.460;2023-10-13T05:49:21;13.68;93.53
65864;SHT30;52639;51.180;20.460;2023-10-13T05:53:43;13.82;93.43
65864;SHT30;52639;51.180;20.460;2023-10-13T05:58:00;13.87;93.46
65864;SHT30;52639;51.180;20.460;2023-10-13T06:02:21;13.91;93.45
65864;SHT30;52639;51.180;20.460;2023-10-13T06:06:41;13.92;93.47
65864;SHT30;52639;51.180;20.460;2023-10-13T06:11:03;14.01;93.50
65864;SHT30;52639;51.180;20.460;2023-10-13T06:15:23;14.24;93.21
65864;SHT30;52639;51.180;20.460;2023-10-13T06:19:44;14.51;92.93
65864;SHT30;52639;51.180;20.460;2023-10-13T06:24:05;15.33;91.38
65864;SHT30;52639;51.180;20.460;2023-10-13T06:28:26;15.43;91.34
65864;SHT30;52639;51.180;20.460;2023-10-13T06:32:45;15.55;91.39
65864;SHT30;52639;51.180;20.460;2023-10-13T06:36:47;15.81;91.00
65864;SHT30;52639;51.180;20.460;2023-10-13T06:40:55;16.45;90.02
65864;SHT30;52639;51.180;20.460;2023-10-13T06:45:00;17.79;87.19
65864;SHT30;52639;51.180;20.460;2023-10-13T06:49:09;20.81;79.98
65864;SHT30;52639;51.180;20.460;2023-10-13T06:53:14;22.28;76.98
65864;SHT30;52639;51.180;20.460;2023-10-13T06:57:17;21.92;78.79
65864;SHT30;52639;51.180;20.460;2023-10-13T07:01:24;22.33;77.85
65864;SHT30;52639;51.180;20.460;2023-10-13T07:05:27;22.63;78.75
65864;SHT30;52639;51.180;20.460;2023-10-13T07:09:33;23.38;76.24
65864;SHT30;52639;51.180;20.460;2023-10-13T07:13:50;23.68;76.58
65864;SHT30;52639;51.180;20.460;2023-10-13T07:17:56;24.88;73.42
65864;SHT30;52639;51.180;20.460;2023-10-13T07:22:02;24.44;74.14
65864;SHT30;52639;51.180;20.460;2023-10-13T07:26:20;25.11;73.11
65864;SHT30;52639;51.180;20.460;2023-10-13T07:30:24;24.37;74.64
65864;SHT30;52639;51.180;20.460;2023-10-13T07:34:30;25.10;72.71
65864;SHT30;52639;51.180;20.460;2023-10-13T07:38:34;25.45;71.38
65864;SHT30;52639;51.180;20.460;2023-10-13T07:42:39;25.90;70.06
65864;SHT30;52639;51.180;20.460;2023-10-13T07:46:42;24.70;73.83
65864;SHT30;52639;51.180;20.460;2023-10-13T07:50:59;22.87;77.73
65864;SHT30;52639;51.180;20.460;2023-10-13T07:55:04;22.08;78.85
65864;SHT30;52639;51.180;20.460;2023-10-13T07:59:21;24.02;72.97
65864;SHT30;52639;51.180;20.460;2023-10-13T08:03:25;23.79;73.41
65864;SHT30;52639;51.180;20.460;2023-10-13T08:07:41;23.86;73.34
65864;SHT30;52639;51.180;20.460;2023-10-13T08:11:44;24.23;72.88
65864;SHT30;52639;51.180;20.460;2023-10-13T08:15:47;23.88;73.39
65864;SHT30;52639;51.180;20.460;2023-10-13T08:19:50;23.20;75.21
65864;SHT30;52639;51.180;20.460;2023-10-13T08:23:55;23.22;74.87
65864;SHT30;52639;51.180;20.460;2023-10-13T08:28:06;23.37;74.60
65864;SHT30;52639;51.180;20.460;2023-10-13T08:32:24;22.49;76.28
65864;SHT30;52639;51.180;20.460;2023-10-13T08:36:37;22.22;76.24
65864;SHT30;52639;51.180;20.460;2023-10-13T08:40:49;22.28;75.47
65864;SHT30;52639;51.180;20.460;2023-10-13T08:45:13;22.24;75.86
65864;SHT30;52639;51.180;20.460;2023-10-13T08:49:43;22.02;76.24
65864;SHT30;52639;51.180;20.460;2023-10-13T08:53:53;21.83;76.38
65864;SHT30;52639;51.180;20.460;2023-10-13T08:58:01;21.89;76.00
65864;SHT30;52639;51.180;20.460;2023-10-13T09:02:14;21.81;76.01
65864;SHT30;52639;51.180;20.460;2023-10-13T09:06:21;22.01;75.63
65864;SHT30;52639;51.180;20.460;2023-10-13T09:10:23;21.95;75.86
65864;SHT30;52639;51.180;20.460;2023-10-13T09:14:38;21.96;76.04
65864;SHT30;52639;51.180;20.460;2023-10-13T09:18:44;22.13;75.51
65864;SHT30;52639;51.180;20.460;2023-10-13T09:22:50;22.14;75.68
65864;SHT30;52639;51.180;20.460;2023-10-13T09:27:09;21.82;76.31
65864;SHT30;52639;51.180;20.460;2023-10-13T10:24:57;21.30;73.81
65864;SHT30;52639;51.180;20.460;2023-10-13T11:01:11;19.89;74.29
65864;SHT30;52639;51.180;20.460;2023-10-13T12:24:34;21.14;71.38
65864;SHT30;52639;51.180;20.460;2023-10-13T12:39:40;20.15;73.34
65864;SHT30;52639;51.180;20.460;2023-10-13T13:00:02;20.69;71.89
65864;SHT30;52639;51.180;20.460;2023-10-13T13:04:24;20.62;72.09
65864;SHT30;52639;51.180;20.460;2023-10-13T13:08:59;20.39;72.87
65864;SHT30;52639;51.180;20.460;2023-10-13T13:13:43;20.20;73.32
65864;SHT30;52639;51.180;20.460;2023-10-13T13:18:09;20.18;73.50
65864;SHT30;52639;51.180;20.460;2023-10-13T13:54:34;19.89;74.51
65864;SHT30;52639;51.180;20.460;2023-10-13T13:59:36;19.86;74.51
65864;SHT30;52639;51.180;20.460;2023-10-13T16:42:27;16.29;80.95
65864;SHT30;52639;51.180;20.460;2023-10-13T17:02:23;16.19;81.72
65864;SHT30;52639;51.180;20.460;2023-10-13T17:17:30;16.02;82.33
65864;SHT30;52639;51.180;20.460;2023-10-13T17:21:35;16.09;82.23
65864;SHT30;52639;51.180;20.460;2023-10-13T17:25:41;16.02;82.56
65864;SHT30;52639;51.180;20.460;2023-10-13T17:29:44;16.09;82.67
65864;SHT30;52639;51.180;20.460;2023-10-13T17:33:51;16.25;82.40
65864;SHT30;52639;51.180;20.460;2023-10-13T17:37:55;16.26;82.65
65864;SHT30;52639;51.180;20.460;2023-10-13T17:41:59;16.28;82.91
65864;SHT30;52639;51.180;20.460;2023-10-13T17:46:07;16.30;82.99
65864;SHT30;52639;51.180;20.460;2023-10-13T18:26:03;16.08;83.86
65864;SHT30;52639;51.180;20.460;2023-10-13T18:31:17;16.05;84.10
65864;SHT30;52639;51.180;20.460;2023-10-13T18:35:43;16.08;84.24
65864;SHT30;52639;51.180;20.460;2023-10-13T18:40:21;16.13;84.22
65864;SHT30;52639;51.180;20.460;2023-10-13T18:44:46;16.06;84.39
65864;SHT30;52639;51.180;20.460;2023-10-13T18:48:55;16.08;84.46
65864;SHT30;52639;51.180;20.460;2023-10-13T18:53:12;15.98;84.70
65864;SHT30;52639;51.180;20.460;2023-10-13T18:57:22;15.80;85.16
65864;SHT30;52639;51.180;20.460;2023-10-13T19:01:43;15.85;85.06
65864;SHT30;52639;51.180;20.460;2023-10-13T19:06:09;15.97;84.87
65864;SHT30;52639;51.180;20.460;2023-10-13T19:10:24;16.08;84.73
65864;SHT30;52639;51.180;20.460;2023-10-13T19:14:32;16.06;85.00
65864;SHT30;52639;51.180;20.460;2023-10-13T19:19:06;16.15;84.81
65864;SHT30;52639;51.180;20.460;2023-10-13T19:24:13;16.18;84.73
65864;SHT30;52639;51.180;20.460;2023-10-13T19:29:18;16.11;85.22
65864;SHT30;52639;51.180;20.460;2023-10-13T19:34:17;16.04;85.21
65864;SHT30;52639;51.180;20.460;2023-10-13T19:38:30;16.22;84.86
65864;SHT30;52639;51.180;20.460;2023-10-13T19:43:22;16.15;84.96
65864;SHT30;52639;51.180;20.460;2023-10-13T19:48:15;16.11;85.27
65864;SHT30;52639;51.180;20.460;2023-10-13T20:03:47;15.71;85.87
65864;SHT30;52639;51.180;20.460;2023-10-13T20:08:50;15.85;85.62
65864;SHT30;52639;51.180;20.460;2023-10-13T20:13:49;15.82;85.60
65864;SHT30;52639;51.180;20.460;2023-10-13T20:18:33;15.95;85.58
65864;SHT30;52639;51.180;20.460;2023-10-13T20:23:09;16.00;85.29
65864;SHT30;52639;51.180;20.460;2023-10-13T20:27:45;15.97;85.43
65864;SHT30;52639;51.180;20.460;2023-10-13T20:31:56;16.11;85.36
65864;SHT30;52639;51.180;20.460;2023-10-13T20:36:19;16.13;85.20
65864;SHT30;52639;51.180;20.460;2023-10-13T20:41:00;16.08;85.44
65864;SHT30;52639;51.180;20.460;2023-10-13T20:45:05;16.12;85.36
65864;SHT30;52639;51.180;20.460;2023-10-13T20:49:26;16.13;85.43
65864;SHT30;52639;51.180;20.460;2023-10-13T20:53:31;16.21;85.26
65864;SHT30;52639;51.180;20.460;2023-10-13T20:57:36;16.04;85.79
65864;SHT30;52639;51.180;20.460;2023-10-13T21:01:38;16.00;85.82
65864;SHT30;52639;51.180;20.460;2023-10-13T21:05:46;15.90;86.13
65864;SHT30;52639;51.180;20.460;2023-10-13T21:09:55;15.81;86.29
65864;SHT30;52639;51.180;20.460;2023-10-13T21:14:06;15.82;86.30
65864;SHT30;52639;51.180;20.460;2023-10-13T21:18:09;15.87;86.06
65864;SHT30;52639;51.180;20.460;2023-10-13T21:22:13;15.57;86.65
65864;SHT30;52639;51.180;20.460;2023-10-13T21:26:24;15.48;86.82
65864;SHT30;52639;51.180;20.460;2023-10-13T21:30:30;15.53;86.54
65864;SHT30;52639;51.180;20.460;2023-10-13T21:34:34;15.64;86.36
65864;SHT30;52639;51.180;20.460;2023-10-13T21:38:37;15.78;85.88
65864;SHT30;52639;51.180;20.460;2023-10-13T21:42:40;15.62;86.37
65864;SHT30;52639;51.180;20.460;2023-10-13T21:46:46;15.68;86.00
65864;SHT30;52639;51.180;20.460;2023-10-13T21:50:49;15.60;86.54
65864;SHT30;52639;51.180;20.460;2023-10-13T21:54:52;15.47;86.45
65864;SHT30;52639;51.180;20.460;2023-10-13T21:58:56;15.41;86.55
65864;SHT30;52639;51.180;20.460;2023-10-13T22:03:04;15.70;86.07
65864;SHT30;52639;51.180;20.460;2023-10-13T22:07:06;15.65;86.09
65864;SHT30;52639;51.180;20.460;2023-10-13T22:11:09;15.91;85.45
65864;SHT30;52639;51.180;20.460;2023-10-13T22:15:16;15.80;85.68
65864;SHT30;52639;51.180;20.460;2023-10-13T22:19:24;15.67;86.09
65864;SHT30;52639;51.180;20.460;2023-10-13T22:23:30;15.61;86.15
65864;SHT30;52639;51.180;20.460;2023-10-13T22:27:37;15.62;86.15
65864;SHT30;52639;51.180;20.460;2023-10-13T22:31:41;15.48;86.58
65864;SHT30;52639;51.180;20.460;2023-10-13T22:35:46;15.44;86.42
65864;SHT30;52639;51.180;20.460;2023-10-13T22:39:53;15.50;86.19
65864;SHT30;52639;51.180;20.460;2023-10-13T22:43:57;15.37;86.69
65864;SHT30;52639;51.180;20.460;2023-10-13T22:48:00;15.47;86.25
65864;SHT30;52639;51.180;20.460;2023-10-13T22:52:05;15.38;86.48
65864;SHT30;52639;51.180;20.460;2023-10-13T22:56:08;15.46;86.33
65864;SHT30;52639;51.180;20.460;2023-10-13T23:00:13;15.38;86.30
65864;SHT30;52639;51.180;20.460;2023-10-13T23:04:16;15.34;86.54
65864;SHT30;52639;51.180;20.460;2023-10-13T23:08:21;15.28;86.52
65864;SHT30;52639;51.180;20.460;2023-10-13T23:12:39;15.36;86.50
65864;SHT30;52639;51.180;20.460;2023-10-13T23:16:44;15.36;86.44
65864;SHT30;52639;51.180;20.460;2023-10-13T23:20:48;15.30;86.39
65864;SHT30;52639;51.180;20.460;2023-10-13T23:24:53;15.54;86.04
65864;SHT30;52639;51.180;20.460;2023-10-13T23:28:57;15.44;85.98
65864;SHT30;52639;51.180;20.460;2023-10-13T23:33:02;15.46;85.99
65864;SHT30;52639;51.180;20.460;2023-10-13T23:37:05;15.36;86.35
65864;SHT30;52639;51.180;20.460;2023-10-13T23:41:13;15.38;86.28
65864;SHT30;52639;51.180;20.460;2023-10-13T23:45:18;15.30;86.38
65864;SHT30;52639;51.180;20.460;2023-10-13T23:49:25;15.27;86.62
65864;SHT30;52639;51.180;20.460;2023-10-13T23:53:30;15.07;86.82
65864;SHT30;52639;51.180;20.460;2023-10-13T23:57:35;15.03;86.84
